createdAt,value
2023-04-09T00:02:09.488Z,53.73
2023-04-09T00:04:36.352Z,52.47
2023-04-09T00:07:06.636Z,52.73
2023-04-09T00:09:36.962Z,52.60
2023-04-09T00:12:04.458Z,56.73
2023-04-09T00:14:31.210Z,59.93
2023-04-09T00:16:57.966Z,55.00
2023-04-09T00:19:25.761Z,56.17
2023-04-09T00:21:52.618Z,59.10
2023-04-09T00:24:19.596Z,60.43
2023-04-09T00:26:46.876Z,61.37
2023-04-09T00:29:14.085Z,61.97
2023-04-09T00:31:41.071Z,64.30
2023-04-09T00:34:07.860Z,68.63
2023-04-09T00:36:34.650Z,60.27
2023-04-09T00:39:01.489Z,66.70
2023-04-09T00:41:28.596Z,63.23
2023-04-09T00:43:57.261Z,61.77
2023-04-09T00:46:24.708Z,59.93
2023-04-09T00:48:51.753Z,59.87
2023-04-09T00:51:18.781Z,60.87
2023-04-09T00:53:46.773Z,64.43
2023-04-09T00:56:15.540Z,63.33
2023-04-09T00:58:42.376Z,60.43
2023-04-09T01:01:09.404Z,59.67
2023-04-09T01:03:36.554Z,58.70
2023-04-09T01:06:19.463Z,61.60
2023-04-09T01:09:22.039Z,61.87
2023-04-09T01:11:59.739Z,58.50
2023-04-09T01:14:26.532Z,61.43
2023-04-09T01:17:00.507Z,61.97
2023-04-09T01:19:50.377Z,60.30
2023-04-09T01:22:25.547Z,63.10
2023-04-09T01:25:04.619Z,67.13
2023-04-09T01:27:47.541Z,67.60
2023-04-09T01:30:16.183Z,67.90
2023-04-09T01:32:43.860Z,67.63
2023-04-09T01:35:11.103Z,69.20
2023-04-09T01:37:38.531Z,66.67
2023-04-09T01:40:06.291Z,67.93
2023-04-09T01:42:33.742Z,76.03
2023-04-09T01:45:01.819Z,82.27
2023-04-09T01:47:29.357Z,77.63
2023-04-09T01:49:56.338Z,73.20
2023-04-09T01:52:23.795Z,80.27
2023-04-09T01:54:50.639Z,86.37
2023-04-09T01:57:17.729Z,84.07
2023-04-09T01:59:44.578Z,90.20
2023-04-09T02:02:17.818Z,81.20
2023-04-09T02:04:49.361Z,80.37
2023-04-09T02:07:25.173Z,86.47
2023-04-09T02:09:54.562Z,90.37
2023-04-09T02:12:22.484Z,91.43
2023-04-09T02:14:52.296Z,96.57
2023-04-09T02:17:19.483Z,90.27
2023-04-09T02:19:48.198Z,96.80
2023-04-09T02:22:16.942Z,95.97
2023-04-09T02:24:44.164Z,98.40
2023-04-09T02:27:10.942Z,99.73
2023-04-09T02:29:39.395Z,93.30
2023-04-09T02:32:06.430Z,94.50
2023-04-09T02:34:33.233Z,97.10
2023-04-09T02:37:00.211Z,101.30
2023-04-09T02:39:27.344Z,92.37
2023-04-09T02:41:54.144Z,99.07
2023-04-09T02:44:21.097Z,100.53
2023-04-09T02:46:49.214Z,94.63
2023-04-09T02:49:16.519Z,91.47
2023-04-09T02:51:45.008Z,91.03
2023-04-09T02:54:11.874Z,86.93
2023-04-09T02:56:38.649Z,85.73
2023-04-09T02:59:05.632Z,87.67
2023-04-09T03:01:32.442Z,84.77
2023-04-09T03:04:01.039Z,86.70
2023-04-09T03:06:28.444Z,79.67
2023-04-09T03:08:55.332Z,88.90
2023-04-09T03:11:22.660Z,80.80
2023-04-09T03:13:49.461Z,81.77
2023-04-09T03:16:16.735Z,82.93
2023-04-09T03:18:43.771Z,92.97
2023-04-09T03:21:13.627Z,79.23
2023-04-09T03:23:41.844Z,80.73
2023-04-09T03:26:08.583Z,83.83
2023-04-09T03:28:35.690Z,78.37
2023-04-09T03:31:02.939Z,81.77
2023-04-09T03:33:29.729Z,85.10
2023-04-09T03:35:56.704Z,86.57
2023-04-09T03:38:24.154Z,88.00
2023-04-09T03:40:50.992Z,83.43
2023-04-09T03:43:18.328Z,100.67
2023-04-09T03:45:45.782Z,93.40
2023-04-09T03:48:12.548Z,97.33
2023-04-09T03:50:41.456Z,94.57
2023-04-09T03:53:08.340Z,91.73
2023-04-09T03:55:35.209Z,97.80
2023-04-09T03:58:02.284Z,96.87
2023-04-09T04:00:29.304Z,93.33
2023-04-09T04:02:56.356Z,96.80
2023-04-09T04:05:26.156Z,98.80
2023-04-09T04:07:53.260Z,97.10
2023-04-09T04:10:20.553Z,95.63
2023-04-09T04:12:47.711Z,112.83
2023-04-09T04:15:14.833Z,109.67
2023-04-09T04:17:41.648Z,112.87
2023-04-09T04:20:09.515Z,123.13
2023-04-09T04:22:36.435Z,165.67
2023-04-09T04:25:04.890Z,149.63
2023-04-09T04:27:32.332Z,273.07
2023-04-09T04:30:02.387Z,250.93
2023-04-09T04:32:29.645Z,283.00
2023-04-09T04:34:56.732Z,359.43
2023-04-09T04:37:23.584Z,401.07
2023-04-09T04:39:50.789Z,469.63
2023-04-09T04:42:17.906Z,295.40
2023-04-09T04:44:45.010Z,451.27
2023-04-09T04:47:11.888Z,393.10
2023-04-09T04:49:39.241Z,485.00
2023-04-09T04:52:06.788Z,461.70
2023-04-09T04:54:34.266Z,472.33
2023-04-09T04:57:01.732Z,386.97
2023-04-09T04:59:28.659Z,346.20
2023-04-09T05:01:55.682Z,407.47
2023-04-09T05:04:22.967Z,409.47
2023-04-09T05:06:49.776Z,268.63
2023-04-09T05:09:16.853Z,403.47
2023-04-09T05:11:43.675Z,332.33
2023-04-09T05:14:10.839Z,301.27
2023-04-09T05:16:37.606Z,436.53
2023-04-09T05:19:04.500Z,402.10
2023-04-09T05:21:32.654Z,329.63
2023-04-09T05:23:59.525Z,478.97
2023-04-09T05:26:26.933Z,287.93
2023-04-09T05:28:54.045Z,429.60
2023-04-09T05:31:21.219Z,433.57
2023-04-09T05:33:51.307Z,299.33
2023-04-09T05:36:19.336Z,277.50
2023-04-09T05:38:49.244Z,301.47
2023-04-09T05:41:16.122Z,231.63
2023-04-09T05:43:43.379Z,261.17
2023-04-09T05:46:10.337Z,171.90
2023-04-09T05:48:37.394Z,218.37
2023-04-09T05:51:04.378Z,233.73
2023-04-09T05:53:32.085Z,210.27
2023-04-09T05:55:59.729Z,226.03
2023-04-09T05:58:28.537Z,121.13
2023-04-09T06:00:55.631Z,212.27
2023-04-09T06:03:22.531Z,322.73
2023-04-09T06:05:49.678Z,269.80
2023-04-09T06:08:17.074Z,285.57
2023-04-09T06:10:43.816Z,411.07
2023-04-09T06:13:11.153Z,253.70
2023-04-09T06:15:39.576Z,235.00
2023-04-09T06:18:06.798Z,241.87
2023-04-09T06:20:34.038Z,110.73
2023-04-09T06:23:00.811Z,172.93
2023-04-09T06:25:27.618Z,202.03
2023-04-09T06:27:54.811Z,210.47
2023-04-09T06:30:21.869Z,178.07
2023-04-09T06:32:54.201Z,157.30
2023-04-09T06:35:22.355Z,122.23
2023-04-09T06:37:49.235Z,118.83
2023-04-09T06:40:16.181Z,87.97
2023-04-09T06:42:43.188Z,146.17
2023-04-09T06:45:10.542Z,124.63
2023-04-09T06:47:37.408Z,108.17
2023-04-09T06:50:04.908Z,69.10
2023-04-09T06:52:32.052Z,54.97
2023-04-09T06:54:58.893Z,59.13
2023-04-09T06:57:26.504Z,59.17
2023-04-09T06:59:53.284Z,61.30
2023-04-09T07:02:20.603Z,69.57
2023-04-09T07:04:48.048Z,83.30
2023-04-09T07:07:15.054Z,56.53
2023-04-09T07:09:42.436Z,63.50
2023-04-09T07:12:09.472Z,66.17
2023-04-09T07:14:36.287Z,51.30
2023-04-09T07:17:03.423Z,54.43
2023-04-09T07:19:31.335Z,49.20
2023-04-09T07:21:58.138Z,44.93
2023-04-09T07:24:25.082Z,42.80
2023-04-09T07:26:52.620Z,38.67
2023-04-09T07:29:21.032Z,39.27
2023-04-09T07:31:47.901Z,39.87
2023-04-09T07:34:15.022Z,40.83
2023-04-09T07:36:42.968Z,48.17
2023-04-09T07:39:09.951Z,56.40
2023-04-09T07:41:37.556Z,41.07
2023-04-09T07:44:06.276Z,39.73
2023-04-09T07:46:33.584Z,39.50
2023-04-09T07:49:01.012Z,44.50
2023-04-09T07:51:27.919Z,47.73
2023-04-09T07:53:54.734Z,43.97
2023-04-09T07:56:21.826Z,40.53
2023-04-09T07:58:49.712Z,38.87
2023-04-09T08:01:17.290Z,36.00
2023-04-09T08:03:44.397Z,38.17
2023-04-09T08:06:11.307Z,39.33
2023-04-09T08:08:38.284Z,39.97
2023-04-09T08:11:05.383Z,32.33
2023-04-09T08:13:32.158Z,32.83
2023-04-09T08:16:02.501Z,33.60
2023-04-09T08:18:29.840Z,37.37
2023-04-09T08:20:57.198Z,32.50
2023-04-09T08:23:24.211Z,33.00
2023-04-09T08:25:51.020Z,33.70
2023-04-09T08:28:17.836Z,32.20
2023-04-09T08:30:45.084Z,31.93
2023-04-09T08:33:12.893Z,30.37
2023-04-09T08:35:41.516Z,31.00
2023-04-09T08:38:08.469Z,28.50
2023-04-09T08:40:36.188Z,33.57
2023-04-09T08:43:06.420Z,32.13
2023-04-09T08:45:33.821Z,34.00
2023-04-09T08:48:04.122Z,35.17
2023-04-09T08:50:36.753Z,32.87
2023-04-09T08:53:06.141Z,33.77
2023-04-09T08:55:37.614Z,32.03
2023-04-09T08:58:07.315Z,32.73
2023-04-09T09:00:34.497Z,34.13
2023-04-09T09:03:06.805Z,32.80
2023-04-09T09:05:42.028Z,35.53
2023-04-09T09:08:14.565Z,34.17
2023-04-09T09:10:45.601Z,35.30
2023-04-09T09:13:19.759Z,33.23
2023-04-09T09:15:49.825Z,32.57
2023-04-09T09:18:18.276Z,31.87
2023-04-09T09:20:45.721Z,33.60
2023-04-09T09:23:12.567Z,33.67
2023-04-09T09:25:43.542Z,31.50
2023-04-09T09:28:13.530Z,33.37
2023-04-09T09:30:40.847Z,32.40
2023-04-09T09:33:10.882Z,29.63
2023-04-09T09:35:52.477Z,30.80
2023-04-09T09:38:20.198Z,29.03
2023-04-09T09:40:47.765Z,29.97
2023-04-09T09:43:14.890Z,30.17
2023-04-09T09:45:43.761Z,26.80
2023-04-09T09:48:15.878Z,27.67
2023-04-09T09:50:44.577Z,29.83
2023-04-09T09:53:12.089Z,28.70
2023-04-09T09:55:42.475Z,25.00
2023-04-09T09:58:17.114Z,28.97
2023-04-09T10:00:46.517Z,27.10
2023-04-09T10:03:23.613Z,24.87
2023-04-09T10:05:53.846Z,26.53
2023-04-09T10:08:22.394Z,27.00
2023-04-09T10:10:51.687Z,25.43
2023-04-09T10:13:34.982Z,26.53
2023-04-09T10:16:02.588Z,22.73
2023-04-09T10:18:33.611Z,19.23
2023-04-09T10:21:07.933Z,17.83
2023-04-09T10:23:39.997Z,22.73
2023-04-09T10:26:07.113Z,18.97
2023-04-09T10:28:34.445Z,21.20
2023-04-09T10:31:01.626Z,19.63
2023-04-09T10:33:29.225Z,18.47
2023-04-09T10:36:22.322Z,19.07
2023-04-09T10:38:51.221Z,15.53
2023-04-09T10:41:29.629Z,15.23
2023-04-09T10:43:57.951Z,14.17
2023-04-09T10:46:37.964Z,15.10
2023-04-09T10:49:40.821Z,15.47
2023-04-09T10:52:14.003Z,14.20
2023-04-09T10:54:46.863Z,13.60
2023-04-09T10:57:16.896Z,13.23
2023-04-09T10:59:49.667Z,14.73
2023-04-09T11:02:19.555Z,13.50
2023-04-09T11:05:07.370Z,12.43
2023-04-09T11:07:40.959Z,11.90
2023-04-09T11:10:08.628Z,11.17
2023-04-09T11:12:35.456Z,12.37
2023-04-09T11:15:02.263Z,12.13
2023-04-09T11:17:32.895Z,12.43
2023-04-09T11:19:59.779Z,11.73
2023-04-09T11:22:28.822Z,11.93
2023-04-09T11:24:55.660Z,12.10
2023-04-09T11:27:22.405Z,11.63
2023-04-09T11:29:49.331Z,11.63
2023-04-09T11:32:16.265Z,12.27
2023-04-09T11:34:43.002Z,11.97
2023-04-09T11:37:16.988Z,11.23
2023-04-09T11:39:46.929Z,12.60
2023-04-09T11:42:17.616Z,11.97
2023-04-09T11:44:49.482Z,11.40
2023-04-09T11:47:20.049Z,11.73
2023-04-09T11:49:47.433Z,11.73
2023-04-09T11:52:16.828Z,11.90
2023-04-09T11:54:49.576Z,11.20
2023-04-09T11:57:17.911Z,11.27
2023-04-09T11:59:45.388Z,12.30
2023-04-09T12:02:12.714Z,11.63
2023-04-09T12:04:49.723Z,110.10
2023-04-09T12:07:17.751Z,101.67
2023-04-09T12:09:48.808Z,11.43
2023-04-09T12:12:19.814Z,9.87
2023-04-09T12:14:47.701Z,10.10
2023-04-09T12:17:14.481Z,11.17
2023-04-09T12:19:41.594Z,9.40
2023-04-09T12:22:08.393Z,11.50
2023-04-09T12:24:35.479Z,11.00
2023-04-09T12:27:02.751Z,12.10
2023-04-09T12:29:29.924Z,13.90
2023-04-09T12:31:56.863Z,10.77
2023-04-09T12:34:24.252Z,11.80
2023-04-09T12:36:51.157Z,47.43
2023-04-09T12:39:18.029Z,14.27
2023-04-09T12:41:45.494Z,11.97
2023-04-09T12:44:15.371Z,12.10
2023-04-09T12:46:42.203Z,9.40
2023-04-09T12:49:09.670Z,10.80
2023-04-09T12:51:36.581Z,10.70
2023-04-09T12:54:04.158Z,11.60
2023-04-09T12:56:31.711Z,10.07
2023-04-09T12:58:58.777Z,12.87
2023-04-09T13:01:26.170Z,11.83
2023-04-09T13:03:53.647Z,12.30
2023-04-09T13:06:22.485Z,12.87
2023-04-09T13:08:49.269Z,12.33
2023-04-09T13:11:16.325Z,11.80
2023-04-09T13:13:43.115Z,12.43
2023-04-09T13:16:10.186Z,12.00
2023-04-09T13:18:38.080Z,14.53
2023-04-09T13:21:04.975Z,11.40
2023-04-09T13:23:31.822Z,12.50
2023-04-09T13:26:00.819Z,12.87
2023-04-09T13:28:27.686Z,12.23
2023-04-09T13:30:54.576Z,11.33
2023-04-09T13:33:22.278Z,14.00
2023-04-09T13:35:49.137Z,13.23
2023-04-09T13:38:16.028Z,10.97
2023-04-09T13:40:42.982Z,11.77
2023-04-09T13:43:09.832Z,12.93
2023-04-09T13:45:36.989Z,13.77
2023-04-09T13:48:04.158Z,11.70
2023-04-09T13:50:31.172Z,11.03
2023-04-09T13:52:58.135Z,10.63
2023-04-09T13:55:25.589Z,10.03
2023-04-09T13:57:52.673Z,11.03
2023-04-09T14:00:20.802Z,9.63
2023-04-09T14:02:47.831Z,11.83
2023-04-09T14:05:14.840Z,10.67
2023-04-09T14:07:41.627Z,11.03
2023-04-09T14:10:09.078Z,11.60
2023-04-09T14:12:36.115Z,10.00
2023-04-09T14:15:03.210Z,11.93
2023-04-09T14:17:30.637Z,16.20
2023-04-09T14:19:59.004Z,14.37
2023-04-09T14:22:30.872Z,14.50
2023-04-09T14:24:57.964Z,12.83
2023-04-09T14:27:25.973Z,11.47
2023-04-09T14:29:53.221Z,11.37
2023-04-09T14:32:20.390Z,10.93
2023-04-09T14:34:47.244Z,12.80
2023-04-09T14:37:14.103Z,11.33
2023-04-09T14:39:41.138Z,15.30
2023-04-09T14:42:08.077Z,13.10
2023-04-09T14:44:35.148Z,10.80
2023-04-09T14:47:02.340Z,14.43
2023-04-09T14:49:31.504Z,15.30
2023-04-09T14:51:59.836Z,11.87
2023-04-09T14:54:27.149Z,10.60
2023-04-09T14:56:53.899Z,13.37
2023-04-09T14:59:20.979Z,12.33
2023-04-09T15:01:48.024Z,13.13
2023-04-09T15:04:15.025Z,12.63
2023-04-09T15:06:42.879Z,12.63
2023-04-09T15:09:10.013Z,12.20
2023-04-09T15:11:36.770Z,12.10
2023-04-09T15:14:03.910Z,11.43
2023-04-09T15:16:33.272Z,12.13
2023-04-09T15:19:00.454Z,12.50
2023-04-09T15:21:27.956Z,12.37
2023-04-09T15:23:54.954Z,13.33
2023-04-09T15:26:21.918Z,13.07
2023-04-09T15:28:48.916Z,12.37
2023-04-09T15:31:15.889Z,12.53
2023-04-09T15:33:43.878Z,11.23
2023-04-09T15:36:13.212Z,13.90
2023-04-09T15:38:40.532Z,11.93
2023-04-09T15:41:07.555Z,12.27
2023-04-09T15:43:34.459Z,12.60
2023-04-09T15:46:08.771Z,12.27
2023-04-09T15:48:35.995Z,13.50
2023-04-09T15:51:05.068Z,11.97
2023-04-09T15:53:31.998Z,13.20
2023-04-09T15:55:59.441Z,12.37
2023-04-09T15:58:26.415Z,12.00
2023-04-09T16:00:53.465Z,11.77
2023-04-09T16:03:20.786Z,14.97
2023-04-09T16:05:48.765Z,11.20
2023-04-09T16:08:16.133Z,13.00
2023-04-09T16:10:43.253Z,11.23
2023-04-09T16:13:10.044Z,10.87
2023-04-09T16:15:37.486Z,12.50
2023-04-09T16:18:04.611Z,13.53
2023-04-09T16:20:31.705Z,13.83
2023-04-09T16:22:58.732Z,12.43
2023-04-09T16:25:25.623Z,14.67
2023-04-09T16:27:52.537Z,12.97
2023-04-09T16:30:19.645Z,13.03
2023-04-09T16:32:46.463Z,13.93
2023-04-09T16:35:13.262Z,11.57
2023-04-09T16:37:40.208Z,11.00
2023-04-09T16:40:08.143Z,11.23
2023-04-09T16:42:34.969Z,10.93
2023-04-09T16:45:04.455Z,11.00
2023-04-09T16:47:32.048Z,13.33
2023-04-09T16:49:59.197Z,12.93
2023-04-09T16:52:26.192Z,11.57
2023-04-09T16:54:55.836Z,11.70
2023-04-09T16:57:22.765Z,10.27
2023-04-09T16:59:49.761Z,11.10
2023-04-09T17:02:16.824Z,10.37
2023-04-09T17:04:43.681Z,10.60
2023-04-09T17:07:10.793Z,10.30
2023-04-09T17:09:37.587Z,10.97
2023-04-09T17:12:04.349Z,10.97
2023-04-09T17:14:31.754Z,10.57
2023-04-09T17:16:58.913Z,11.23
2023-04-09T17:19:26.343Z,11.10
2023-04-09T17:21:53.413Z,10.90
2023-04-09T17:24:20.371Z,11.83
2023-04-09T17:26:47.192Z,11.30
2023-04-09T17:29:14.335Z,11.03
2023-04-09T17:31:41.523Z,10.97
2023-04-09T17:34:08.655Z,11.03
2023-04-09T17:36:35.846Z,11.50
2023-04-09T17:39:03.077Z,12.70
2023-04-09T17:41:30.006Z,12.13
2023-04-09T17:43:57.117Z,11.90
2023-04-09T17:46:24.062Z,13.00
2023-04-09T17:48:52.009Z,13.07
2023-04-09T17:51:20.217Z,11.90
2023-04-09T17:53:47.667Z,13.07
2023-04-09T17:56:17.392Z,12.40
2023-04-09T17:58:45.233Z,12.40
2023-04-09T18:01:13.818Z,11.27
2023-04-09T18:03:46.195Z,13.00
2023-04-09T18:06:14.720Z,13.23
2023-04-09T18:08:43.366Z,13.83
2023-04-09T18:11:13.266Z,14.60
2023-04-09T18:13:40.857Z,17.53
2023-04-09T18:16:12.174Z,14.87
2023-04-09T18:18:39.425Z,17.30
2023-04-09T18:21:06.493Z,17.33
2023-04-09T18:23:33.813Z,21.90
2023-04-09T18:26:00.984Z,19.43
2023-04-09T18:28:28.493Z,20.30
2023-04-09T18:30:55.572Z,22.17
2023-04-09T18:33:22.978Z,24.97
2023-04-09T18:35:49.966Z,22.50
2023-04-09T18:38:17.735Z,22.43
2023-04-09T18:40:44.965Z,22.20
2023-04-09T18:43:12.641Z,24.27
2023-04-09T18:45:42.771Z,20.53
2023-04-09T18:48:10.002Z,24.37
2023-04-09T18:50:36.841Z,23.47
2023-04-09T18:53:05.725Z,23.77
2023-04-09T18:55:32.665Z,21.83
2023-04-09T18:57:59.746Z,22.30
2023-04-09T19:00:27.851Z,25.73
2023-04-09T19:02:54.865Z,32.67
2023-04-09T19:05:22.019Z,29.80
2023-04-09T19:07:49.221Z,32.50
2023-04-09T19:10:16.626Z,32.13
2023-04-09T19:12:49.934Z,43.87
2023-04-09T19:15:16.821Z,41.53
2023-04-09T19:17:43.978Z,38.30
2023-04-09T19:20:14.057Z,47.33
2023-04-09T19:22:41.320Z,47.30
2023-04-09T19:25:09.888Z,38.97
2023-04-09T19:27:37.341Z,37.93
2023-04-09T19:30:04.683Z,33.97
2023-04-09T19:32:31.657Z,33.77
2023-04-09T19:34:58.782Z,35.90
2023-04-09T19:37:28.150Z,32.10
2023-04-09T19:39:56.173Z,30.47
2023-04-09T19:42:23.951Z,33.33
2023-04-09T19:44:51.148Z,28.53
2023-04-09T19:47:18.290Z,30.57
2023-04-09T19:49:45.165Z,27.50
2023-04-09T19:52:12.325Z,29.83
2023-04-09T19:54:39.199Z,29.20
2023-04-09T19:57:06.687Z,32.07
2023-04-09T19:59:39.868Z,36.53
2023-04-09T20:02:07.346Z,31.07
2023-04-09T20:04:34.379Z,33.07
2023-04-09T20:07:01.901Z,31.33
2023-04-09T20:09:29.168Z,31.83
2023-04-09T20:11:58.307Z,33.30
2023-04-09T20:14:25.717Z,36.07
2023-04-09T20:16:52.757Z,38.00
2023-04-09T20:19:19.884Z,35.00
2023-04-09T20:21:47.119Z,30.63
2023-04-09T20:24:14.259Z,34.27
2023-04-09T20:26:41.044Z,34.53
2023-04-09T20:29:10.183Z,36.33
2023-04-09T20:31:38.883Z,36.90
2023-04-09T20:34:05.711Z,37.43
2023-04-09T20:36:32.814Z,35.73
2023-04-09T20:39:02.658Z,36.97
2023-04-09T20:41:29.947Z,36.53
2023-04-09T20:43:56.994Z,36.30
2023-04-09T20:46:23.882Z,36.77
2023-04-09T20:48:51.176Z,37.67
2023-04-09T20:51:18.278Z,36.83
2023-04-09T20:53:45.472Z,54.00
2023-04-09T20:56:12.499Z,55.77
2023-04-09T20:58:39.790Z,54.90
2023-04-09T21:01:10.106Z,55.10
2023-04-09T21:03:40.868Z,53.73
2023-04-09T21:06:08.911Z,54.23
2023-04-09T21:08:36.588Z,50.30
2023-04-09T21:11:03.819Z,48.43
2023-04-09T21:13:35.795Z,46.83
2023-04-09T21:16:14.148Z,46.47
2023-04-09T21:18:41.636Z,48.10
2023-04-09T21:21:08.647Z,46.53
2023-04-09T21:23:35.444Z,47.60
2023-04-09T21:26:06.648Z,51.27
2023-04-09T21:28:34.122Z,50.10
2023-04-09T21:31:00.955Z,52.37
2023-04-09T21:33:29.865Z,50.83
2023-04-09T21:35:57.180Z,51.13
2023-04-09T21:38:24.234Z,51.90
2023-04-09T21:40:51.290Z,48.67
2023-04-09T21:43:18.171Z,53.50
2023-04-09T21:45:44.981Z,52.53
2023-04-09T21:48:12.609Z,56.97
2023-04-09T21:50:39.775Z,52.63
2023-04-09T21:53:06.691Z,52.70
2023-04-09T21:55:36.513Z,53.07
2023-04-09T21:58:03.911Z,57.13
2023-04-09T22:00:31.475Z,54.53
2023-04-09T22:03:01.672Z,56.97
2023-04-09T22:05:29.030Z,65.93
2023-04-09T22:07:56.365Z,59.93
2023-04-09T22:10:23.482Z,59.20
2023-04-09T22:12:50.802Z,59.63
2023-04-09T22:15:17.733Z,59.30
2023-04-09T22:17:44.872Z,63.03
2023-04-09T22:20:11.873Z,56.03
2023-04-09T22:22:39.100Z,58.60
2023-04-09T22:25:07.259Z,57.77
2023-04-09T22:27:34.497Z,60.70
2023-04-09T22:30:01.631Z,56.57
2023-04-09T22:32:29.447Z,59.30
2023-04-09T22:34:56.383Z,54.57
2023-04-09T22:37:25.795Z,55.40
2023-04-09T22:39:55.212Z,57.50
2023-04-09T22:42:22.049Z,55.60
2023-04-09T22:44:48.931Z,51.90
2023-04-09T22:47:16.379Z,55.07
2023-04-09T22:49:43.205Z,52.63
2023-04-09T22:52:10.076Z,52.37
2023-04-09T22:54:38.177Z,51.33
2023-04-09T22:57:05.007Z,52.47
2023-04-09T22:59:40.368Z,58.60
2023-04-09T23:02:08.173Z,53.10
2023-04-09T23:04:35.180Z,51.77
2023-04-09T23:07:02.476Z,51.40
2023-04-09T23:09:30.962Z,53.53
2023-04-09T23:11:58.251Z,55.20
2023-04-09T23:14:25.039Z,56.77
2023-04-09T23:16:52.106Z,55.30
2023-04-09T23:19:18.903Z,57.37
2023-04-09T23:21:45.951Z,60.10
2023-04-09T23:24:12.837Z,57.00
2023-04-09T23:26:39.610Z,58.93
2023-04-09T23:29:06.686Z,61.17
2023-04-09T23:31:33.753Z,60.77
2023-04-09T23:34:00.562Z,60.77
2023-04-09T23:36:27.936Z,56.70
2023-04-09T23:38:54.662Z,60.67
2023-04-09T23:41:21.731Z,56.03
2023-04-09T23:43:48.584Z,65.67
2023-04-09T23:46:15.693Z,58.43
2023-04-09T23:48:42.406Z,58.70
2023-04-09T23:51:09.411Z,61.10
2023-04-09T23:53:36.707Z,58.03
2023-04-09T23:56:04.436Z,62.90
2023-04-09T23:58:32.125Z,63.97
